Main page
METAR-TAF:

METAR-TAF

Airports :

Sebring Regional Airport

Sebring, Florida, United States

latitude: 27-27-23N, longitude: 081-20-33W, elevation: 62 ft

Current weather observation

The report was made 27 minutes ago, at 12:35 UTC
Wind 12 mph from the Northeast
Temperature 77°F
Humidity 83%
Pressure 30.02 in. Hg
Visibility: 10 miles
Overcast at a height of 3800 ft

METAR: KSEF 211235Z AUTO 04010KT 10SM OVC038 25/22 A3002 RMK AO2 T02540218

Time: 09:02 (13:02 UTC)


TAF: missing

Weather observations and forecasts of more than 4000 airports (METAR and TAF reports).

The available stations are represented by yellow and red dots on the map.

Hover mouse over dot to see the name of the station.

Then click to see weather observations and forecasts.

To change the map : click on the green buttons with a black cross to zoom in, on the green button with a dash to zoom out, or on the green arrows for adjacent maps.


METAR-TAF: